sensor_id;sensor_type;location;lat;lon;timestamp;pressure;altitude;pressure_sealevel;temperature;humidity
27429;BME280;14881;48.092;11.574;2023-03-05T00:02:28;95638.63;;;-0.63;100.00
27429;BME280;14881;48.092;11.574;2023-03-05T00:04:56;95637.16;;;-0.59;100.00
27429;BME280;14881;48.092;11.574;2023-03-05T00:07:24;95641.25;;;-0.56;100.00
27429;BME280;14881;48.092;11.574;2023-03-05T00:09:53;95637.97;;;-0.58;100.00
27429;BME280;14881;48.092;11.574;2023-03-05T00:12:20;95635.25;;;-0.52;100.00
27429;BME280;14881;48.092;11.574;2023-03-05T00:14:48;95636.00;;;-0.45;100.00
27429;BME280;14881;48.092;11.574;2023-03-05T00:17:16;95633.16;;;-0.50;100.00
27429;BME280;14881;48.092;11.574;2023-03-05T00:19:44;95620.22;;;-0.46;100.00
27429;BME280;14881;48.092;11.574;2023-03-05T00:22:11;95630.06;;;-0.47;100.00
27429;BME280;14881;48.092;11.574;2023-03-05T00:24:39;95630.28;;;-0.48;100.00
27429;BME280;14881;48.092;11.574;2023-03-05T00:27:08;95623.78;;;-0.52;100.00
27429;BME280;14881;48.092;11.574;2023-03-05T00:29:36;95624.53;;;-0.45;100.00
27429;BME280;14881;48.092;11.574;2023-03-05T00:32:04;95623.28;;;-0.43;100.00
27429;BME280;14881;48.092;11.574;2023-03-05T00:34:35;95625.72;;;-0.41;100.00
27429;BME280;14881;48.092;11.574;2023-03-05T00:37:03;95616.91;;;-0.42;100.00
27429;BME280;14881;48.092;11.574;2023-03-05T00:39:30;95611.56;;;-0.42;100.00
27429;BME280;14881;48.092;11.574;2023-03-05T00:42:03;95613.38;;;-0.36;100.00
27429;BME280;14881;48.092;11.574;2023-03-05T00:44:35;95607.97;;;-0.29;100.00
27429;BME280;14881;48.092;11.574;2023-03-05T00:47:03;95606.91;;;-0.28;100.00
27429;BME280;14881;48.092;11.574;2023-03-05T00:49:31;95608.34;;;-0.25;100.00
27429;BME280;14881;48.092;11.574;2023-03-05T00:51:59;95599.13;;;-0.29;100.00
27429;BME280;14881;48.092;11.574;2023-03-05T00:54:26;95609.88;;;-0.36;100.00
27429;BME280;14881;48.092;11.574;2023-03-05T00:56:54;95598.00;;;-0.40;100.00
27429;BME280;14881;48.092;11.574;2023-03-05T00:59:22;95590.66;;;-0.45;100.00
27429;BME280;14881;48.092;11.574;2023-03-05T01:01:51;95592.69;;;-0.40;100.00
27429;BME280;14881;48.092;11.574;2023-03-05T01:04:19;95590.81;;;-0.40;100.00
27429;BME280;14881;48.092;11.574;2023-03-05T01:06:47;95589.19;;;-0.41;100.00
27429;BME280;14881;48.092;11.574;2023-03-05T01:09:15;95593.94;;;-0.43;100.00
27429;BME280;14881;48.092;11.574;2023-03-05T01:11:43;95586.91;;;-0.37;100.00
27429;BME280;14881;48.092;11.574;2023-03-05T01:14:11;95584.59;;;-0.33;100.00
27429;BME280;14881;48.092;11.574;2023-03-05T01:16:39;95582.38;;;-0.37;100.00
27429;BME280;14881;48.092;11.574;2023-03-05T01:19:08;95574.59;;;-0.38;100.00
27429;BME280;14881;48.092;11.574;2023-03-05T01:21:36;95566.81;;;-0.40;100.00
27429;BME280;14881;48.092;11.574;2023-03-05T01:24:04;95573.91;;;-0.33;100.00
27429;BME280;14881;48.092;11.574;2023-03-05T01:26:32;95571.72;;;-0.37;100.00
27429;BME280;14881;48.092;11.574;2023-03-05T01:29:00;95563.50;;;-0.35;100.00
27429;BME280;14881;48.092;11.574;2023-03-05T01:31:28;95567.53;;;-0.32;100.00
27429;BME280;14881;48.092;11.574;2023-03-05T01:33:56;95561.59;;;-0.35;100.00
27429;BME280;14881;48.092;11.574;2023-03-05T01:36:26;95561.25;;;-0.38;100.00
27429;BME280;14881;48.092;11.574;2023-03-05T01:38:56;95558.00;;;-0.40;100.00
27429;BME280;14881;48.092;11.574;2023-03-05T01:41:24;95550.41;;;-0.43;100.00
27429;BME280;14881;48.092;11.574;2023-03-05T01:43:52;95554.06;;;-0.38;100.00
27429;BME280;14881;48.092;11.574;2023-03-05T01:46:27;95557.91;;;-0.33;100.00
27429;BME280;14881;48.092;11.574;2023-03-05T01:49:10;95545.97;;;-0.31;100.00
27429;BME280;14881;48.092;11.574;2023-03-05T01:51:46;95546.56;;;-0.29;100.00
27429;BME280;14881;48.092;11.574;2023-03-05T01:54:21;95541.44;;;-0.30;100.00
27429;BME280;14881;48.092;11.574;2023-03-05T01:56:52;95544.34;;;-0.32;100.00
27429;BME280;14881;48.092;11.574;2023-03-05T01:59:23;95541.06;;;-0.34;100.00
27429;BME280;14881;48.092;11.574;2023-03-05T02:01:54;95537.97;;;-0.31;100.00
27429;BME280;14881;48.092;11.574;2023-03-05T02:04:27;95537.97;;;-0.31;100.00
27429;BME280;14881;48.092;11.574;2023-03-05T02:06:58;95538.19;;;-0.32;100.00
27429;BME280;14881;48.092;11.574;2023-03-05T02:09:27;95539.81;;;-0.31;100.00
27429;BME280;14881;48.092;11.574;2023-03-05T02:11:55;95535.09;;;-0.29;100.00
27429;BME280;14881;48.092;11.574;2023-03-05T02:14:24;95533.84;;;-0.27;100.00
27429;BME280;14881;48.092;11.574;2023-03-05T02:16:55;95525.38;;;-0.24;100.00
27429;BME280;14881;48.092;11.574;2023-03-05T02:19:22;95523.22;;;-0.15;100.00
27429;BME280;14881;48.092;11.574;2023-03-05T02:21:53;95522.63;;;-0.17;100.00
27429;BME280;14881;48.092;11.574;2023-03-05T02:24:33;95520.56;;;-0.15;100.00
27429;BME280;14881;48.092;11.574;2023-03-05T02:27:02;95525.44;;;-0.12;100.00
27429;BME280;14881;48.092;11.574;2023-03-05T02:29:31;95521.75;;;-0.11;100.00
27429;BME280;14881;48.092;11.574;2023-03-05T02:32:00;95523.81;;;-0.13;100.00
27429;BME280;14881;48.092;11.574;2023-03-05T02:34:28;95524.03;;;-0.15;100.00
27429;BME280;14881;48.092;11.574;2023-03-05T02:36:57;95520.94;;;-0.12;100.00
27429;BME280;14881;48.092;11.574;2023-03-05T02:39:25;95519.00;;;-0.05;100.00
27429;BME280;14881;48.092;11.574;2023-03-05T02:41:54;95514.13;;;-0.08;100.00
27429;BME280;14881;48.092;11.574;2023-03-05T02:44:22;95511.50;;;-0.14;100.00
27429;BME280;14881;48.092;11.574;2023-03-05T02:46:49;95512.47;;;-0.09;100.00
27429;BME280;14881;48.092;11.574;2023-03-05T02:49:21;95499.13;;;-0.09;100.00
27429;BME280;14881;48.092;11.574;2023-03-05T02:51:49;95511.22;;;-0.06;100.00
27429;BME280;14881;48.092;11.574;2023-03-05T02:54:18;95495.81;;;-0.04;100.00
27429;BME280;14881;48.092;11.574;2023-03-05T02:56:46;95498.53;;;-0.11;100.00
27429;BME280;14881;48.092;11.574;2023-03-05T02:59:13;95492.91;;;-0.03;100.00
27429;BME280;14881;48.092;11.574;2023-03-05T03:01:41;95486.31;;;0.00;100.00
27429;BME280;14881;48.092;11.574;2023-03-05T03:04:12;95485.25;;;0.01;100.00
27429;BME280;14881;48.092;11.574;2023-03-05T03:06:40;95478.88;;;0.02;100.00
27429;BME280;14881;48.092;11.574;2023-03-05T03:09:08;95467.63;;;0.00;100.00
27429;BME280;14881;48.092;11.574;2023-03-05T03:11:37;95472.00;;;-0.06;100.00
27429;BME280;14881;48.092;11.574;2023-03-05T03:14:06;95467.69;;;-0.07;100.00
27429;BME280;14881;48.092;11.574;2023-03-05T03:16:33;95466.88;;;-0.07;100.00
27429;BME280;14881;48.092;11.574;2023-03-05T03:19:01;95460.88;;;-0.03;100.00
27429;BME280;14881;48.092;11.574;2023-03-05T03:21:29;95467.31;;;-0.10;100.00
27429;BME280;14881;48.092;11.574;2023-03-05T03:23:57;95463.38;;;-0.08;100.00
27429;BME280;14881;48.092;11.574;2023-03-05T03:26:24;95460.06;;;-0.03;100.00
27429;BME280;14881;48.092;11.574;2023-03-05T03:28:53;95453.16;;;-0.11;100.00
27429;BME280;14881;48.092;11.574;2023-03-05T03:31:24;95458.06;;;-0.08;100.00
27429;BME280;14881;48.092;11.574;2023-03-05T03:33:51;95454.50;;;-0.02;100.00
27429;BME280;14881;48.092;11.574;2023-03-05T03:36:19;95454.28;;;0.00;100.00
27429;BME280;14881;48.092;11.574;2023-03-05T03:38:47;95450.78;;;-0.01;100.00
27429;BME280;14881;48.092;11.574;2023-03-05T03:41:15;95459.13;;;0.03;100.00
27429;BME280;14881;48.092;11.574;2023-03-05T03:43:44;95450.91;;;0.05;100.00
27429;BME280;14881;48.092;11.574;2023-03-05T03:46:13;95448.97;;;0.12;100.00
27429;BME280;14881;48.092;11.574;2023-03-05T03:48:43;95449.63;;;0.07;100.00
27429;BME280;14881;48.092;11.574;2023-03-05T03:51:11;95446.16;;;0.07;100.00
27429;BME280;14881;48.092;11.574;2023-03-05T03:53:39;95442.91;;;0.05;100.00
27429;BME280;14881;48.092;11.574;2023-03-05T03:56:06;95438.97;;;0.07;100.00
27429;BME280;14881;48.092;11.574;2023-03-05T03:58:37;95434.22;;;0.09;100.00
27429;BME280;14881;48.092;11.574;2023-03-05T04:01:05;95430.50;;;0.10;100.00
27429;BME280;14881;48.092;11.574;2023-03-05T04:03:34;95436.06;;;0.09;100.00
27429;BME280;14881;48.092;11.574;2023-03-05T04:06:02;95426.66;;;0.06;100.00
27429;BME280;14881;48.092;11.574;2023-03-05T04:08:32;95424.34;;;0.10;100.00
27429;BME280;14881;48.092;11.574;2023-03-05T04:11:00;95431.31;;;0.11;100.00
27429;BME280;14881;48.092;11.574;2023-03-05T04:13:28;95424.84;;;0.18;100.00
27429;BME280;14881;48.092;11.574;2023-03-05T04:15:56;95418.94;;;0.16;100.00
27429;BME280;14881;48.092;11.574;2023-03-05T04:18:24;95419.59;;;0.12;100.00
27429;BME280;14881;48.092;11.574;2023-03-05T04:20:53;95424.72;;;0.13;100.00
27429;BME280;14881;48.092;11.574;2023-03-05T04:23:21;95415.22;;;0.17;100.00
27429;BME280;14881;48.092;11.574;2023-03-05T04:25:49;95404.66;;;0.22;100.00
27429;BME280;14881;48.092;11.574;2023-03-05T04:28:16;95414.22;;;0.30;100.00
27429;BME280;14881;48.092;11.574;2023-03-05T04:30:44;95406.41;;;0.28;100.00
27429;BME280;14881;48.092;11.574;2023-03-05T04:33:12;95404.94;;;0.32;100.00
27429;BME280;14881;48.092;11.574;2023-03-05T04:35:42;95404.34;;;0.30;100.00
27429;BME280;14881;48.092;11.574;2023-03-05T04:38:14;95404.56;;;0.29;100.00
27429;BME280;14881;48.092;11.574;2023-03-05T04:40:43;95393.28;;;0.27;100.00
27429;BME280;14881;48.092;11.574;2023-03-05T04:43:11;95405.81;;;0.26;100.00
27429;BME280;14881;48.092;11.574;2023-03-05T04:45:42;95395.88;;;0.33;100.00
27429;BME280;14881;48.092;11.574;2023-03-05T04:48:10;95395.88;;;0.33;100.00
27429;BME280;14881;48.092;11.574;2023-03-05T04:50:39;95405.97;;;0.31;100.00
27429;BME280;14881;48.092;11.574;2023-03-05T04:53:07;95396.44;;;0.35;100.00
27429;BME280;14881;48.092;11.574;2023-03-05T04:55:36;95394.03;;;0.34;100.00
27429;BME280;14881;48.092;11.574;2023-03-05T04:58:07;95391.56;;;0.32;100.00
27429;BME280;14881;48.092;11.574;2023-03-05T05:00:35;95389.22;;;0.36;100.00
27429;BME280;14881;48.092;11.574;2023-03-05T05:03:03;95382.63;;;0.39;100.00
27429;BME280;14881;48.092;11.574;2023-03-05T05:05:31;95391.69;;;0.38;100.00
27429;BME280;14881;48.092;11.574;2023-03-05T05:07:59;95390.63;;;0.39;100.00
27429;BME280;14881;48.092;11.574;2023-03-05T05:10:27;95392.94;;;0.35;100.00
27429;BME280;14881;48.092;11.574;2023-03-05T05:12:56;95382.63;;;0.39;100.00
27429;BME280;14881;48.092;11.574;2023-03-05T05:15:24;95380.66;;;0.46;100.00
27429;BME280;14881;48.092;11.574;2023-03-05T05:17:51;95378.47;;;0.43;100.00
27429;BME280;14881;48.092;11.574;2023-03-05T05:20:19;95386.69;;;0.41;100.00
27429;BME280;14881;48.092;11.574;2023-03-05T05:22:47;95379.84;;;0.45;100.00
27429;BME280;14881;48.092;11.574;2023-03-05T05:25:15;95375.47;;;0.51;100.00
27429;BME280;14881;48.092;11.574;2023-03-05T05:27:43;95379.75;;;0.52;100.00
27429;BME280;14881;48.092;11.574;2023-03-05T05:30:12;95376.72;;;0.48;100.00
27429;BME280;14881;48.092;11.574;2023-03-05T05:32:41;95371.16;;;0.50;100.00
27429;BME280;14881;48.092;11.574;2023-03-05T05:35:12;95375.91;;;0.48;100.00
27429;BME280;14881;48.092;11.574;2023-03-05T05:37:43;95378.00;;;0.46;100.00
27429;BME280;14881;48.092;11.574;2023-03-05T05:40:13;95380.00;;;0.50;100.00
27429;BME280;14881;48.092;11.574;2023-03-05T05:42:46;95375.22;;;0.52;100.00
27429;BME280;14881;48.092;11.574;2023-03-05T05:45:17;95384.75;;;0.60;100.00
27429;BME280;14881;48.092;11.574;2023-03-05T05:47:44;95378.00;;;0.57;100.00
27429;BME280;14881;48.092;11.574;2023-03-05T05:50:12;95386.63;;;0.59;100.00
27429;BME280;14881;48.092;11.574;2023-03-05T05:52:44;95385.34;;;0.62;100.00
27429;BME280;14881;48.092;11.574;2023-03-05T05:55:12;95382.66;;;0.62;100.00
27429;BME280;14881;48.092;11.574;2023-03-05T05:57:40;95387.09;;;0.68;100.00
27429;BME280;14881;48.092;11.574;2023-03-05T06:00:09;95389.41;;;0.64;100.00
27429;BME280;14881;48.092;11.574;2023-03-05T06:02:42;95382.22;;;0.65;100.00
27429;BME280;14881;48.092;11.574;2023-03-05T06:05:11;95380.22;;;0.72;100.00
27429;BME280;14881;48.092;11.574;2023-03-05T06:07:40;95381.41;;;0.64;100.00
27429;BME280;14881;48.092;11.574;2023-03-05T06:10:12;95384.75;;;0.72;100.00
27429;BME280;14881;48.092;11.574;2023-03-05T06:12:39;95381.03;;;0.73;100.00
27429;BME280;14881;48.092;11.574;2023-03-05T06:15:08;95376.16;;;0.69;100.00
27429;BME280;14881;48.092;11.574;2023-03-05T06:17:36;95371.97;;;0.74;100.00
27429;BME280;14881;48.092;11.574;2023-03-05T06:20:06;95381.53;;;0.81;100.00
27429;BME280;14881;48.092;11.574;2023-03-05T06:22:35;95379.22;;;0.85;100.00
27429;BME280;14881;48.092;11.574;2023-03-05T06:25:03;95379.00;;;0.86;100.00
27429;BME280;14881;48.092;11.574;2023-03-05T06:27:33;95371.28;;;0.90;100.00
27429;BME280;14881;48.092;11.574;2023-03-05T06:30:04;95377.81;;;0.94;100.00
27429;BME280;14881;48.092;11.574;2023-03-05T06:32:32;95373.50;;;0.93;100.00
27429;BME280;14881;48.092;11.574;2023-03-05T06:35:00;95375.84;;;1.01;100.00
27429;BME280;14881;48.092;11.574;2023-03-05T06:37:29;95373.03;;;0.96;100.00
27429;BME280;14881;48.092;11.574;2023-03-05T06:39:56;95366.88;;;0.95;100.00
27429;BME280;14881;48.092;11.574;2023-03-05T06:42:27;95370.25;;;1.02;100.00
27429;BME280;14881;48.092;11.574;2023-03-05T06:44:54;95369.22;;;1.03;100.00
27429;BME280;14881;48.092;11.574;2023-03-05T06:47:22;95374.88;;;1.07;100.00
27429;BME280;14881;48.092;11.574;2023-03-05T06:49:50;95377.91;;;1.11;100.00
27429;BME280;14881;48.092;11.574;2023-03-05T06:52:17;95376.53;;;1.20;100.00
27429;BME280;14881;48.092;11.574;2023-03-05T06:54:48;95370.13;;;1.21;100.00
27429;BME280;14881;48.092;11.574;2023-03-05T06:57:16;95365.56;;;1.21;100.00
27429;BME280;14881;48.092;11.574;2023-03-05T06:59:46;95369.31;;;1.20;100.00
27429;BME280;14881;48.092;11.574;2023-03-05T07:02:14;95368.00;;;1.23;100.00
27429;BME280;14881;48.092;11.574;2023-03-05T07:04:45;95361.97;;;1.27;100.00
27429;BME280;14881;48.092;11.574;2023-03-05T07:07:13;95363.13;;;1.31;100.00
27429;BME280;14881;48.092;11.574;2023-03-05T07:09:40;95361.28;;;1.32;100.00
27429;BME280;14881;48.092;11.574;2023-03-05T07:12:12;95369.75;;;1.29;100.00
27429;BME280;14881;48.092;11.574;2023-03-05T07:14:40;95362.91;;;1.33;100.00
27429;BME280;14881;48.092;11.574;2023-03-05T07:17:11;95366.75;;;1.37;100.00
27429;BME280;14881;48.092;11.574;2023-03-05T07:19:40;95356.25;;;1.35;100.00
27429;BME280;14881;48.092;11.574;2023-03-05T07:22:09;95359.63;;;1.31;100.00
27429;BME280;14881;48.092;11.574;2023-03-05T07:24:37;95364.28;;;1.35;100.00
27429;BME280;14881;48.092;11.574;2023-03-05T07:27:05;95363.56;;;1.40;100.00
27429;BME280;14881;48.092;11.574;2023-03-05T07:29:34;95363.56;;;1.40;100.00
27429;BME280;14881;48.092;11.574;2023-03-05T07:32:02;95361.59;;;1.47;100.00
27429;BME280;14881;48.092;11.574;2023-03-05T07:34:30;95361.13;;;1.50;100.00
27429;BME280;14881;48.092;11.574;2023-03-05T07:36:58;95360.06;;;1.51;100.00
27429;BME280;14881;48.092;11.574;2023-03-05T07:39:25;95356.06;;;1.65;100.00
27429;BME280;14881;48.092;11.574;2023-03-05T07:41:53;95358.63;;;1.60;100.00
27429;BME280;14881;48.092;11.574;2023-03-05T07:44:22;95362.81;;;1.56;100.00
27429;BME280;14881;48.092;11.574;2023-03-05T07:46:54;95356.53;;;1.62;100.00
27429;BME280;14881;48.092;11.574;2023-03-05T07:49:22;95351.25;;;1.79;100.00
27429;BME280;14881;48.092;11.574;2023-03-05T07:51:50;95360.09;;;1.80;100.00
27429;BME280;14881;48.092;11.574;2023-03-05T07:54:18;95351.13;;;1.74;100.00
27429;BME280;14881;48.092;11.574;2023-03-05T07:56:45;95352.88;;;1.80;100.00
27429;BME280;14881;48.092;11.574;2023-03-05T07:59:14;95345.78;;;1.74;100.00
27429;BME280;14881;48.092;11.574;2023-03-05T08:01:44;95352.41;;;1.83;100.00
27429;BME280;14881;48.092;11.574;2023-03-05T08:04:14;95346.59;;;1.74;100.00
27429;BME280;14881;48.092;11.574;2023-03-05T08:06:41;95351.59;;;1.83;100.00
27429;BME280;14881;48.092;11.574;2023-03-05T08:09:11;95342.97;;;1.81;100.00
27429;BME280;14881;48.092;11.574;2023-03-05T08:11:40;95341.69;;;1.83;100.00
27429;BME280;14881;48.092;11.574;2023-03-05T08:14:08;95334.84;;;2.04;100.00
27429;BME280;14881;48.092;11.574;2023-03-05T08:16:37;95338.00;;;2.01;100.00
27429;BME280;14881;48.092;11.574;2023-03-05T08:19:05;95344.19;;;2.01;100.00
27429;BME280;14881;48.092;11.574;2023-03-05T08:21:35;95341.97;;;1.98;100.00
27429;BME280;14881;48.092;11.574;2023-03-05T08:24:07;95337.53;;;2.04;100.00
27429;BME280;14881;48.092;11.574;2023-03-05T08:26:36;95335.81;;;1.98;100.00
27429;BME280;14881;48.092;11.574;2023-03-05T08:29:05;95337.88;;;2.07;100.00
27429;BME280;14881;48.092;11.574;2023-03-05T08:31:33;95330.31;;;2.04;100.00
27429;BME280;14881;48.092;11.574;2023-03-05T08:34:02;95337.19;;;2.00;100.00
27429;BME280;14881;48.092;11.574;2023-03-05T08:36:31;95326.41;;;2.12;100.00
27429;BME280;14881;48.092;11.574;2023-03-05T08:39:00;95328.22;;;2.23;100.00
27429;BME280;14881;48.092;11.574;2023-03-05T08:41:28;95329.44;;;2.32;100.00
27429;BME280;14881;48.092;11.574;2023-03-05T08:43:56;95338.28;;;2.33;100.00
27429;BME280;14881;48.092;11.574;2023-03-05T08:46:24;95331.72;;;2.24;100.00
27429;BME280;14881;48.092;11.574;2023-03-05T08:48:52;95326.59;;;2.22;100.00
27429;BME280;14881;48.092;11.574;2023-03-05T08:51:22;95313.78;;;2.41;100.00
27429;BME280;14881;48.092;11.574;2023-03-05T08:53:52;95315.31;;;2.70;100.00
27429;BME280;14881;48.092;11.574;2023-03-05T08:56:21;95321.22;;;2.89;100.00
27429;BME280;14881;48.092;11.574;2023-03-05T08:58:49;95317.25;;;2.92;100.00
27429;BME280;14881;48.092;11.574;2023-03-05T09:01:17;95306.19;;;2.88;100.00
27429;BME280;14881;48.092;11.574;2023-03-05T09:03:45;95302.22;;;2.91;100.00
27429;BME280;14881;48.092;11.574;2023-03-05T09:06:13;95307.91;;;2.94;100.00
27429;BME280;14881;48.092;11.574;2023-03-05T09:08:41;95303.59;;;2.93;100.00
27429;BME280;14881;48.092;11.574;2023-03-05T09:11:11;95305.53;;;2.81;100.00
27429;BME280;14881;48.092;11.574;2023-03-05T09:13:41;95310.41;;;2.84;100.00
27429;BME280;14881;48.092;11.574;2023-03-05T09:16:11;95297.34;;;2.88;100.00
27429;BME280;14881;48.092;11.574;2023-03-05T09:18:40;95297.19;;;2.94;100.00
27429;BME280;14881;48.092;11.574;2023-03-05T09:21:10;95297.91;;;2.90;100.00
27429;BME280;14881;48.092;11.574;2023-03-05T09:23:43;95285.44;;;3.00;100.00
27429;BME280;14881;48.092;11.574;2023-03-05T09:26:13;95287.06;;;3.01;100.00
27429;BME280;14881;48.092;11.574;2023-03-05T09:28:46;95289.56;;;3.08;100.00
27429;BME280;14881;48.092;11.574;2023-03-05T09:31:17;95287.31;;;3.00;100.00
27429;BME280;14881;48.092;11.574;2023-03-05T09:33:46;95279.69;;;2.92;100.00
27429;BME280;14881;48.092;11.574;2023-03-05T09:36:20;95269.25;;;2.95;100.00
27429;BME280;14881;48.092;11.574;2023-03-05T09:38:48;95275.34;;;3.07;100.00
27429;BME280;14881;48.092;11.574;2023-03-05T09:41:24;95275.97;;;3.14;100.00
27429;BME280;14881;48.092;11.574;2023-03-05T09:44:00;95276.84;;;3.20;100.00
27429;BME280;14881;48.092;11.574;2023-03-05T09:46:41;95286.19;;;3.18;100.00
27429;BME280;14881;48.092;11.574;2023-03-05T09:49:15;95284.44;;;3.06;100.00
27429;BME280;14881;48.092;11.574;2023-03-05T09:51:51;95282.59;;;3.07;100.00
27429;BME280;14881;48.092;11.574;2023-03-05T09:54:25;95278.44;;;2.99;100.00
27429;BME280;14881;48.092;11.574;2023-03-05T09:57:01;95288.19;;;3.05;100.00
27429;BME280;14881;48.092;11.574;2023-03-05T09:59:34;95279.66;;;3.08;100.00
27429;BME280;14881;48.092;11.574;2023-03-05T10:02:16;95268.78;;;3.20;100.00
27429;BME280;14881;48.092;11.574;2023-03-05T10:04:48;95268.88;;;3.25;100.00
27429;BME280;14881;48.092;11.574;2023-03-05T10:07:20;95264.41;;;3.14;100.00
27429;BME280;14881;48.092;11.574;2023-03-05T10:09:56;95261.56;;;3.21;100.00
27429;BME280;14881;48.092;11.574;2023-03-05T10:12:38;95272.41;;;3.31;100.00
27429;BME280;14881;48.092;11.574;2023-03-05T10:15:12;95267.56;;;3.28;100.00
27429;BME280;14881;48.092;11.574;2023-03-05T10:18:01;95266.22;;;3.30;100.00
27429;BME280;14881;48.092;11.574;2023-03-05T10:20:51;95266.50;;;3.29;100.00
27429;BME280;14881;48.092;11.574;2023-03-05T10:23:28;95268.44;;;3.11;100.00
27429;BME280;14881;48.092;11.574;2023-03-05T10:26:08;95263.00;;;3.06;100.00
27429;BME280;14881;48.092;11.574;2023-03-05T10:28:43;95260.38;;;3.11;100.00
27429;BME280;14881;48.092;11.574;2023-03-05T10:31:25;95256.50;;;3.24;100.00
27429;BME280;14881;48.092;11.574;2023-03-05T10:34:17;95239.09;;;3.27;100.00
27429;BME280;14881;48.092;11.574;2023-03-05T10:36:59;95235.94;;;3.35;100.00
27429;BME280;14881;48.092;11.574;2023-03-05T10:39:50;95249.88;;;3.32;100.00
27429;BME280;14881;48.092;11.574;2023-03-05T10:42:28;95233.66;;;3.43;100.00
27429;BME280;14881;48.092;11.574;2023-03-05T10:45:00;95236.09;;;3.45;100.00
27429;BME280;14881;48.092;11.574;2023-03-05T10:47:38;95246.50;;;3.41;100.00
27429;BME280;14881;48.092;11.574;2023-03-05T10:50:15;95238.81;;;3.50;100.00
27429;BME280;14881;48.092;11.574;2023-03-05T10:52:44;95239.28;;;3.42;100.00
27429;BME280;14881;48.092;11.574;2023-03-05T10:55:19;95229.94;;;3.49;100.00
27429;BME280;14881;48.092;11.574;2023-03-05T10:57:47;95223.63;;;3.61;100.00
27429;BME280;14881;48.092;11.574;2023-03-05T11:00:20;95214.78;;;3.65;100.00
27429;BME280;14881;48.092;11.574;2023-03-05T11:02:57;95218.50;;;3.59;100.00
27429;BME280;14881;48.092;11.574;2023-03-05T11:05:46;95215.75;;;3.81;100.00
27429;BME280;14881;48.092;11.574;2023-03-05T11:08:29;95209.13;;;3.89;100.00
27429;BME280;14881;48.092;11.574;2023-03-05T11:13:56;95190.91;;;4.28;100.00
27429;BME280;14881;48.092;11.574;2023-03-05T11:16:26;95202.53;;;4.38;100.00
27429;BME280;14881;48.092;11.574;2023-03-05T11:19:18;95199.25;;;3.99;100.00
27429;BME280;14881;48.092;11.574;2023-03-05T11:22:12;95188.41;;;4.21;100.00
27429;BME280;14881;48.092;11.574;2023-03-05T11:24:41;95191.63;;;3.86;100.00
27429;BME280;14881;48.092;11.574;2023-03-05T11:27:24;95181.81;;;4.02;100.00
27429;BME280;14881;48.092;11.574;2023-03-05T11:29:55;95176.53;;;4.12;100.00
27429;BME280;14881;48.092;11.574;2023-03-05T11:32:24;95174.56;;;4.39;100.00
27429;BME280;14881;48.092;11.574;2023-03-05T11:34:55;95169.28;;;4.54;100.00
27429;BME280;14881;48.092;11.574;2023-03-05T11:37:24;95167.16;;;4.57;100.00
27429;BME280;14881;48.092;11.574;2023-03-05T11:40:13;95161.66;;;4.88;100.00
27429;BME280;14881;48.092;11.574;2023-03-05T11:42:46;95169.81;;;5.04;100.00
27429;BME280;14881;48.092;11.574;2023-03-05T11:45:21;95165.41;;;4.82;100.00
27429;BME280;14881;48.092;11.574;2023-03-05T11:47:51;95169.41;;;4.75;100.00
27429;BME280;14881;48.092;11.574;2023-03-05T11:50:23;95160.66;;;4.52;100.00
27429;BME280;14881;48.092;11.574;2023-03-05T11:52:54;95159.19;;;4.30;100.00
27429;BME280;14881;48.092;11.574;2023-03-05T11:55:26;95156.47;;;4.25;100.00
27429;BME280;14881;48.092;11.574;2023-03-05T11:58:03;95153.09;;;4.44;100.00
27429;BME280;14881;48.092;11.574;2023-03-05T12:00:42;95139.69;;;4.49;100.00
27429;BME280;14881;48.092;11.574;2023-03-05T12:03:14;95133.63;;;4.74;100.00
27429;BME280;14881;48.092;11.574;2023-03-05T12:05:47;95134.34;;;5.17;100.00
27429;BME280;14881;48.092;11.574;2023-03-05T12:08:20;95125.78;;;5.50;100.00
27429;BME280;14881;48.092;11.574;2023-03-05T12:10:51;95135.78;;;5.70;100.00
27429;BME280;14881;48.092;11.574;2023-03-05T12:13:27;95133.84;;;5.55;100.00
27429;BME280;14881;48.092;11.574;2023-03-05T12:16:07;95133.28;;;5.38;100.00
27429;BME280;14881;48.092;11.574;2023-03-05T12:18:43;95117.16;;;5.58;100.00
27429;BME280;14881;48.092;11.574;2023-03-05T12:21:24;95117.44;;;5.57;100.00
27429;BME280;14881;48.092;11.574;2023-03-05T12:23:56;95126.88;;;5.49;100.00
27429;BME280;14881;48.092;11.574;2023-03-05T12:26:55;95119.84;;;5.43;100.00
27429;BME280;14881;48.092;11.574;2023-03-05T12:29:39;95109.03;;;5.28;100.00
27429;BME280;14881;48.092;11.574;2023-03-05T12:35:22;95100.69;;;4.47;100.00
27429;BME280;14881;48.092;11.574;2023-03-05T12:38:03;95099.22;;;4.29;100.00
27429;BME280;14881;48.092;11.574;2023-03-05T12:40:51;95094.75;;;4.45;100.00
27429;BME280;14881;48.092;11.574;2023-03-05T12:43:30;95088.34;;;4.56;100.00
27429;BME280;14881;48.092;11.574;2023-03-05T12:46:24;95081.41;;;4.65;100.00
27429;BME280;14881;48.092;11.574;2023-03-05T12:48:52;95079.72;;;4.54;100.00
27429;BME280;14881;48.092;11.574;2023-03-05T12:51:29;95081.72;;;4.79;100.00
27429;BME280;14881;48.092;11.574;2023-03-05T12:57:14;95066.22;;;5.42;100.00
27429;BME280;14881;48.092;11.574;2023-03-05T12:59:46;95066.50;;;5.30;100.00
27429;BME280;14881;48.092;11.574;2023-03-05T13:02:20;95077.75;;;4.97;100.00
27429;BME280;14881;48.092;11.574;2023-03-05T13:04:50;95073.44;;;4.96;100.00
27429;BME280;14881;48.092;11.574;2023-03-05T13:07:20;95071.28;;;4.98;100.00
27429;BME280;14881;48.092;11.574;2023-03-05T13:09:53;95069.69;;;5.02;100.00
27429;BME280;14881;48.092;11.574;2023-03-05T13:12:22;95072.50;;;4.60;100.00
27429;BME280;14881;48.092;11.574;2023-03-05T13:14:56;95055.94;;;5.03;100.00
27429;BME280;14881;48.092;11.574;2023-03-05T13:17:34;95059.19;;;5.20;100.00